Pagrindinis puslapis
METAR-TAF:

METAR-TAF

Oro uostai :

Južno Sachalinskas, Rusija

platuma: 46-57N, ilguma: 142-43E, Aukštis: 31 m

Dabartinis oras

Ataskaita buvo paskelbta 48 minutes, ne 08:00 UTC
Vėjas 8 kt iš Šiaurės Vakarų
Temperatūra -4°C
Drėgmė 46%
Slėgis 1014 hPa
Matomumas 10 km arba daugiau
Mažai debesys ne aukštis 4000 ft

METAR: UHSS 240800Z 31004MPS 9999 FEW040 M04/M14 Q1014 R01/810260 NOSIG RMK QFE759/1013

Laikas: 19:48 (08:48 UTC)

Prognozė

Ataskaita buvo paskelbta 1 valandą ir 3 minutes, ne 07:45 UTC
Prognozė galioja nuo 24 metu 09 UTC su 25 metu 15 UTC
Vėjas 6 kt iš Šiaurės/Šiaurės Vakarų
Matomumas 10 km arba daugiau
Su prošvaistėmis ne aukštis 3000 ft, Liūtiniai kamuoliniai debesys.

TAF: UHSS 240745Z 2409/2515 33003MPS 9999 BKN030CB

Orai ataskaitas ir orų prognozės (METAR, TAF).

turimą stotys yra geltonos ir raudonos taškus žemėlapyje.

Perkelti pele per norėdami pamatyti stoties vardą.

Tada spustelėkite, norėdami matyti oro stebėjimo ir prognozės.

Norėdami pakeisti žemėlapį: spustelėkite ant žalios mygtukų su juodo kryžiaus žemyn,; žalią mygtuką su brūkšneliu, jei norite nutolinti; arba žalių rodyklių gretimoms žemėlapius.


METAR-TAF: